Lehmann Sound — V2EM3 — position and weather

sailwx.info

Track history (hours):
 
Tides and Currents Weather Stations Pressure Air Temp Water Temp Dewpoint Dewpoint Depression Visibility Wind Speed Wind Dir Waves Ship Positions

Lehmann Sound

Last reported at 2015-Apr-18 20:33 UTC. Time now 2015-Apr-18 20:51 UTC.
Position N 57°37' E 009°24'.

Length 90 m; draft 6 m.

Type: Cargo ship. MMSI: 305476000.

Date/timePositionNaut miles runAvg speedWind from/ knotsBaromVisibWave heightAir tempDewpointWater temp
2015-Apr-18 20:33N 57°37' E 009°24'1010.0
2015-Apr-18 19:33N 57°42' E 009°40'10 9.8
2015-Apr-18 18:33N 57°47' E 009°56'9 9.4
2015-Apr-18 17:33N 57°48' E 010°13'10 9.8
2015-Apr-18 16:33N 57°49' E 010°32'9 9.1
2015-Apr-18 15:33N 57°47' E 010°48'10 9.5
2015-Apr-18 14:33N 57°40' E 011°02'1010.0
2015-Apr-18 13:32N 57°34' E 011°16'1010.0
2015-Apr-18 12:33N 57°26' E 011°28'1110.8
2015-Apr-18 11:33N 57°16' E 011°34'1110.9
2015-Apr-18 10:33N 57°06' E 011°41'1010.1
2015-Apr-18 09:33N 56°56' E 011°47'9 9.5
2015-Apr-18 08:33N 56°47' E 011°53'10 9.9
2015-Apr-18 07:33N 56°38' E 011°57'10 9.8
2015-Apr-18 06:33N 56°28' E 012°01'10 9.6
2015-Apr-18 05:33N 56°19' E 012°05'10 9.8
2015-Apr-18 04:33N 56°13' E 012°19'1110.9
2015-Apr-18 03:33N 56°06' E 012°35'1110.7
2015-Apr-18 02:33N 55°57' E 012°44'1010.2
2015-Apr-18 01:33N 55°46' E 012°42'1110.8
2015-Apr-18 00:33N 55°36' E 012°42'1010.5
2015-Apr-17 23:33N 55°25' E 012°42'9 8.7
2015-Apr-17 22:33N 55°17' E 012°48'10 9.9
2015-Apr-17 21:33N 55°16' E 013°05'1010.0
2015-Apr-17 20:33N 55°15' E 013°23'32 9.9
2015-Apr-17 17:18N 55°17' E 014°20'  
2015-Apr-13 06:28N 57°11' E 017°36'113 9.2
2015-Apr-12 18:15N 55°41' E 015°34'8 9.9
2015-Apr-12 17:28N 55°37' E 015°22'11 9.9
2015-Apr-12 16:19N 55°31' E 015°05'810.0
2015-Apr-12 15:33N 55°28' E 014°53'1010.1
2015-Apr-12 14:33N 55°22' E 014°38'10 9.9
2015-Apr-12 13:32N 55°15' E 014°27'29 9.7
2015-Apr-12 10:33N 55°12' E 013°36'10 9.7
2015-Apr-12 09:33N 55°13' E 013°19'1010.0
2015-Apr-12 08:33N 55°14' E 013°02'1010.0
2015-Apr-12 07:33N 55°16' E 012°45'8 7.7
2015-Apr-12 06:33N 55°23' E 012°39'10 9.8
2015-Apr-12 05:33N 55°33' E 012°42'1110.5
2015-Apr-12 04:33N 55°43' E 012°41'3 3.1
2015-Apr-12 03:33N 55°41' E 012°38'0 0.0
2015-Apr-12 02:33N 55°41' E 012°38'0 0.0
2015-Apr-12 01:33N 55°41' E 012°38'0 0.0
2015-Apr-12 00:30N 55°41' E 012°38'3 3.0
2015-Apr-11 23:33N 55°43' E 012°39'2 2.1
2015-Apr-11 22:33N 55°46' E 012°40'0 0.1
2015-Apr-11 21:33N 55°46' E 012°40'0 0.0
2015-Apr-11 20:33N 55°46' E 012°40'0 0.0
2015-Apr-11 19:33N 55°46' E 012°40'0 0.0
2015-Apr-11 18:33N 55°46' E 012°40'0 0.0
2015-Apr-11 17:33N 55°46' E 012°40'1 0.7
2015-Apr-11 16:33N 55°46' E 012°40'9 9.0
2015-Apr-11 15:33N 55°55' E 012°37'9 8.7
2015-Apr-11 14:33N 56°04' E 012°37'8 7.6
2015-Apr-11 13:33N 56°09' E 012°27'10 9.6
2015-Apr-11 12:33N 56°14' E 012°13'10 9.6
2015-Apr-11 11:33N 56°22' E 012°02'1010.3
2015-Apr-11 10:33N 56°32' E 011°58'1010.0
2015-Apr-11 09:33N 56°41' E 011°53'10 9.8
2015-Apr-11 08:33N 56°51' E 011°48'1010.1
2015-Apr-11 07:33N 57°00' E 011°42'1010.0
2015-Apr-11 06:33N 57°10' E 011°35'9 9.2
2015-Apr-11 05:33N 57°18' E 011°30'9 9.3
2015-Apr-11 04:33N 57°27' E 011°24'9 9.1
2015-Apr-11 03:33N 57°34' E 011°12'10 9.8
2015-Apr-11 02:33N 57°40' E 010°58'11 9.8
2015-Apr-11 01:23N 57°48' E 010°43'8 9.6
2015-Apr-11 00:33N 57°56' E 010°43'10 9.9
2015-Apr-10 23:33N 58°06' E 010°43'10 9.6
2015-Apr-10 22:33N 58°16' E 010°43'9 9.5
2015-Apr-10 21:33N 58°25' E 010°44'9 8.5
2015-Apr-10 20:33N 58°34' E 010°44'9 8.4
2015-Apr-10 19:30N 58°43' E 010°45'11 8.1
2015-Apr-10 18:05N 58°54' E 010°45'4 7.0
2015-Apr-10 17:33N 58°58' E 010°45'6 5.7
2015-Apr-10 16:32N 59°01' E 010°54'7 6.9
2015-Apr-10 15:31N 59°08' E 010°58'3 3.3
2015-Apr-10 14:32N 59°11' E 010°57'0 0.0
2015-Apr-10 13:32N 59°11' E 010°57'0 0.0
2015-Apr-10 12:32N 59°11' E 010°57'0 0.0
2015-Apr-10 11:32N 59°11' E 010°57'0 0.0
2015-Apr-10 10:32N 59°11' E 010°57'0 0.0
2015-Apr-10 09:32N 59°11' E 010°57'0 0.0
2015-Apr-10 08:32N 59°11' E 010°57'0 0.0
2015-Apr-10 07:32N 59°11' E 010°57'0 0.0
2015-Apr-10 06:32N 59°11' E 010°57'0 0.0
2015-Apr-10 05:26N 59°11' E 010°57'0 0.0
2015-Apr-10 04:32N 59°11' E 010°57'0 0.0
2015-Apr-10 03:32N 59°11' E 010°57'0 0.0
2015-Apr-10 02:32N 59°11' E 010°57'0 0.0
2015-Apr-10 01:32N 59°11' E 010°57'0 0.0
2015-Apr-10 00:31N 59°11' E 010°57'0 0.0
2015-Apr-09 23:31N 59°11' E 010°57'0 0.0
2015-Apr-09 22:31N 59°11' E 010°57'0 0.0
2015-Apr-09 21:31N 59°11' E 010°57'0 0.0
2015-Apr-09 20:31N 59°11' E 010°57'0 0.0
2015-Apr-09 19:22N 59°11' E 010°57'0 0.0
2015-Apr-09 18:31N 59°11' E 010°57'0 0.0
2015-Apr-09 17:31N 59°11' E 010°57'0 0.0
2015-Apr-09 16:31N 59°11' E 010°57'0 0.0
2015-Apr-09 15:31N 59°11' E 010°57'0 0.0
2015-Apr-09 14:31N 59°11' E 010°57'0 0.0
2015-Apr-09 13:31N 59°11' E 010°57'0 0.0
2015-Apr-09 12:31N 59°11' E 010°57'0 0.0
2015-Apr-09 11:28N 59°11' E 010°57'0 0.0
2015-Apr-09 10:31N 59°11' E 010°57'0 0.0
2015-Apr-09 08:25N 59°11' E 010°57'0 0.0
2015-Apr-09 07:31N 59°11' E 010°57'0 0.0
2015-Apr-09 06:31N 59°11' E 010°57'0 0.0
2015-Apr-09 05:31N 59°11' E 010°57'0 0.0
2015-Apr-09 04:25N 59°11' E 010°57'0 0.0
2015-Apr-09 03:31N 59°11' E 010°57'0 0.0
2015-Apr-09 02:31N 59°11' E 010°57'0 0.0
2015-Apr-09 01:28N 59°11' E 010°57'0 0.0
2015-Apr-09 00:31N 59°11' E 010°57'0 0.0
2015-Apr-08 23:19N 59°11' E 010°57'0 0.0
2015-Apr-08 22:25N 59°11' E 010°57'0 0.0
2015-Apr-08 21:31N 59°11' E 010°57'  
Track history (hours):
 
Tides and Currents Weather Stations Pressure Air Temp Water Temp Dewpoint Dewpoint Depression Visibility Wind Speed Wind Dir Waves Ship Positions

Lehmann Sound

Last reported at 2015-Apr-18 20:33 UTC. Time now 2015-Apr-18 20:51 UTC.
Position N 57°37' E 009°24'.

Length 90 m; draft 6 m.

Type: Cargo ship. MMSI: 305476000.

Date/timePositionNaut miles runAvg speedWind from/ knotsBaromVisibWave heightAir tempDewpointWater temp
2015-Apr-18 20:33N 57°37' E 009°24'1010.0
2015-Apr-18 19:33N 57°42' E 009°40'10 9.8
2015-Apr-18 18:33N 57°47' E 009°56'9 9.4
2015-Apr-18 17:33N 57°48' E 010°13'10 9.8
2015-Apr-18 16:33N 57°49' E 010°32'9 9.1
2015-Apr-18 15:33N 57°47' E 010°48'10 9.5
2015-Apr-18 14:33N 57°40' E 011°02'1010.0
2015-Apr-18 13:32N 57°34' E 011°16'1010.0
2015-Apr-18 12:33N 57°26' E 011°28'1110.8
2015-Apr-18 11:33N 57°16' E 011°34'1110.9
2015-Apr-18 10:33N 57°06' E 011°41'1010.1
2015-Apr-18 09:33N 56°56' E 011°47'9 9.5
2015-Apr-18 08:33N 56°47' E 011°53'10 9.9
2015-Apr-18 07:33N 56°38' E 011°57'10 9.8
2015-Apr-18 06:33N 56°28' E 012°01'10 9.6
2015-Apr-18 05:33N 56°19' E 012°05'10 9.8
2015-Apr-18 04:33N 56°13' E 012°19'1110.9
2015-Apr-18 03:33N 56°06' E 012°35'1110.7
2015-Apr-18 02:33N 55°57' E 012°44'1010.2
2015-Apr-18 01:33N 55°46' E 012°42'1110.8
2015-Apr-18 00:33N 55°36' E 012°42'1010.5
2015-Apr-17 23:33N 55°25' E 012°42'9 8.7
2015-Apr-17 22:33N 55°17' E 012°48'10 9.9
2015-Apr-17 21:33N 55°16' E 013°05'1010.0
2015-Apr-17 20:33N 55°15' E 013°23'32 9.9
2015-Apr-17 17:18N 55°17' E 014°20'  
2015-Apr-13 06:28N 57°11' E 017°36'113 9.2
2015-Apr-12 18:15N 55°41' E 015°34'8 9.9
2015-Apr-12 17:28N 55°37' E 015°22'11 9.9
2015-Apr-12 16:19N 55°31' E 015°05'810.0
2015-Apr-12 15:33N 55°28' E 014°53'1010.1
2015-Apr-12 14:33N 55°22' E 014°38'10 9.9
2015-Apr-12 13:32N 55°15' E 014°27'29 9.7
2015-Apr-12 10:33N 55°12' E 013°36'10 9.7
2015-Apr-12 09:33N 55°13' E 013°19'1010.0
2015-Apr-12 08:33N 55°14' E 013°02'1010.0
2015-Apr-12 07:33N 55°16' E 012°45'8 7.7
2015-Apr-12 06:33N 55°23' E 012°39'10 9.8
2015-Apr-12 05:33N 55°33' E 012°42'1110.5
2015-Apr-12 04:33N 55°43' E 012°41'3 3.1
2015-Apr-12 03:33N 55°41' E 012°38'0 0.0
2015-Apr-12 02:33N 55°41' E 012°38'0 0.0
2015-Apr-12 01:33N 55°41' E 012°38'0 0.0
2015-Apr-12 00:30N 55°41' E 012°38'3 3.0
2015-Apr-11 23:33N 55°43' E 012°39'2 2.1
2015-Apr-11 22:33N 55°46' E 012°40'0 0.1
2015-Apr-11 21:33N 55°46' E 012°40'0 0.0
2015-Apr-11 20:33N 55°46' E 012°40'0 0.0
2015-Apr-11 19:33N 55°46' E 012°40'0 0.0
2015-Apr-11 18:33N 55°46' E 012°40'0 0.0
2015-Apr-11 17:33N 55°46' E 012°40'1 0.7
2015-Apr-11 16:33N 55°46' E 012°40'9 9.0
2015-Apr-11 15:33N 55°55' E 012°37'9 8.7
2015-Apr-11 14:33N 56°04' E 012°37'8 7.6
2015-Apr-11 13:33N 56°09' E 012°27'10 9.6
2015-Apr-11 12:33N 56°14' E 012°13'10 9.6
2015-Apr-11 11:33N 56°22' E 012°02'1010.3
2015-Apr-11 10:33N 56°32' E 011°58'1010.0
2015-Apr-11 09:33N 56°41' E 011°53'10 9.8
2015-Apr-11 08:33N 56°51' E 011°48'1010.1
2015-Apr-11 07:33N 57°00' E 011°42'1010.0
2015-Apr-11 06:33N 57°10' E 011°35'9 9.2
2015-Apr-11 05:33N 57°18' E 011°30'9 9.3
2015-Apr-11 04:33N 57°27' E 011°24'9 9.1
2015-Apr-11 03:33N 57°34' E 011°12'10 9.8
2015-Apr-11 02:33N 57°40' E 010°58'11 9.8
2015-Apr-11 01:23N 57°48' E 010°43'8 9.6
2015-Apr-11 00:33N 57°56' E 010°43'10 9.9
2015-Apr-10 23:33N 58°06' E 010°43'10 9.6
2015-Apr-10 22:33N 58°16' E 010°43'9 9.5
2015-Apr-10 21:33N 58°25' E 010°44'9 8.5
2015-Apr-10 20:33N 58°34' E 010°44'9 8.4
2015-Apr-10 19:30N 58°43' E 010°45'11 8.1
2015-Apr-10 18:05N 58°54' E 010°45'4 7.0
2015-Apr-10 17:33N 58°58' E 010°45'6 5.7
2015-Apr-10 16:32N 59°01' E 010°54'7 6.9
2015-Apr-10 15:31N 59°08' E 010°58'3 3.3
2015-Apr-10 14:32N 59°11' E 010°57'0 0.0
2015-Apr-10 13:32N 59°11' E 010°57'0 0.0
2015-Apr-10 12:32N 59°11' E 010°57'0 0.0
2015-Apr-10 11:32N 59°11' E 010°57'0 0.0
2015-Apr-10 10:32N 59°11' E 010°57'0 0.0
2015-Apr-10 09:32N 59°11' E 010°57'0 0.0
2015-Apr-10 08:32N 59°11' E 010°57'0 0.0
2015-Apr-10 07:32N 59°11' E 010°57'0 0.0
2015-Apr-10 06:32N 59°11' E 010°57'0 0.0
2015-Apr-10 05:26N 59°11' E 010°57'0 0.0
2015-Apr-10 04:32N 59°11' E 010°57'0 0.0
2015-Apr-10 03:32N 59°11' E 010°57'0 0.0
2015-Apr-10 02:32N 59°11' E 010°57'0 0.0
2015-Apr-10 01:32N 59°11' E 010°57'0 0.0
2015-Apr-10 00:31N 59°11' E 010°57'0 0.0
2015-Apr-09 23:31N 59°11' E 010°57'0 0.0
2015-Apr-09 22:31N 59°11' E 010°57'0 0.0
2015-Apr-09 21:31N 59°11' E 010°57'0 0.0
2015-Apr-09 20:31N 59°11' E 010°57'0 0.0
2015-Apr-09 19:22N 59°11' E 010°57'0 0.0
2015-Apr-09 18:31N 59°11' E 010°57'0 0.0
2015-Apr-09 17:31N 59°11' E 010°57'0 0.0
2015-Apr-09 16:31N 59°11' E 010°57'0 0.0
2015-Apr-09 15:31N 59°11' E 010°57'0 0.0
2015-Apr-09 14:31N 59°11' E 010°57'0 0.0
2015-Apr-09 13:31N 59°11' E 010°57'0 0.0
2015-Apr-09 12:31N 59°11' E 010°57'0 0.0
2015-Apr-09 11:28N 59°11' E 010°57'0 0.0
2015-Apr-09 10:31N 59°11' E 010°57'0 0.0
2015-Apr-09 08:25N 59°11' E 010°57'0 0.0
2015-Apr-09 07:31N 59°11' E 010°57'0 0.0
2015-Apr-09 06:31N 59°11' E 010°57'0 0.0
2015-Apr-09 05:31N 59°11' E 010°57'0 0.0
2015-Apr-09 04:25N 59°11' E 010°57'0 0.0
2015-Apr-09 03:31N 59°11' E 010°57'0 0.0
2015-Apr-09 02:31N 59°11' E 010°57'0 0.0
2015-Apr-09 01:28N 59°11' E 010°57'0 0.0
2015-Apr-09 00:31N 59°11' E 010°57'0 0.0
2015-Apr-08 23:19N 59°11' E 010°57'0 0.0
2015-Apr-08 22:25N 59°11' E 010°57'0 0.0
2015-Apr-08 21:31N 59°11' E 010°57'  

Dump ship's entire track history